Time;durP1;ratioP1;P1;durP2;ratioP2;P2;SDS_P1;SDS_P2;PMS_P1;PMS_P2;Temp;Humidity;BMP_temperature;BMP_pressure;BME280_temperature;BME280_humidity;BME280_pressure;Samples;Min_cycle;Max_cycle;Signal;HPM_P1;HPM_P2
2023/09/23 00:01:28;;;;;;;2.60;1.70;;;;;;;13.47;83.11;97589.91;5048438;28;20029;-74
2023/09/23 00:03:54;;;;;;;2.05;1.50;;;;;;;13.43;82.96;97595.09;5046659;28;20075;-73
2023/09/23 00:06:22;;;;;;;4.18;1.63;;;;;;;13.24;83.48;97583.25;5044945;28;20454;-72
2023/09/23 00:08:48;;;;;;;2.13;1.55;;;;;;;13.26;83.71;97600.00;5048131;28;20104;-73
2023/09/23 00:11:14;;;;;;;4.63;1.80;;;;;;;13.26;84.13;97599.19;5032714;28;20059;-73
2023/09/23 00:13:39;;;;;;;2.67;1.73;;;;;;;13.18;83.92;97609.50;5046400;28;20021;-72
2023/09/23 00:16:09;;;;;;;2.38;1.65;;;;;;;13.16;84.69;97610.88;5040931;28;20044;-74
2023/09/23 00:18:35;;;;;;;2.67;1.90;;;;;;;13.18;84.34;97607.88;5054688;28;20026;-70
2023/09/23 00:21:03;;;;;;;2.17;1.70;;;;;;;12.96;85.09;97578.44;5024447;28;20493;-71
2023/09/23 00:23:28;;;;;;;2.20;1.90;;;;;;;13.10;84.90;97601.97;5051808;28;20056;-70
2023/09/23 00:25:53;;;;;;;2.30;2.10;;;;;;;13.13;84.68;97604.13;5048112;28;20069;-69
2023/09/23 00:28:20;;;;;;;3.35;2.30;;;;;;;13.08;84.94;97614.13;5048170;28;20054;-71
2023/09/23 00:30:45;;;;;;;2.63;2.05;;;;;;;13.09;84.64;97604.94;5031446;28;20037;-71
2023/09/23 00:33:16;;;;;;;4.65;2.10;;;;;;;13.07;85.59;97607.09;5017865;28;20032;-71
2023/09/23 00:35:44;;;;;;;4.65;2.08;;;;;;;12.94;85.52;97588.72;5047521;28;20045;-70
2023/09/23 00:38:11;;;;;;;3.03;2.30;;;;;;;12.99;85.60;97611.16;5045326;28;20067;-69
2023/09/23 00:40:38;;;;;;;5.28;2.33;;;;;;;12.96;85.79;97594.66;5028813;28;20029;-72
2023/09/23 00:43:07;;;;;;;4.00;1.90;;;;;;;12.92;85.74;97593.59;5030838;28;20026;-69
2023/09/23 00:45:34;;;;;;;2.58;2.10;;;;;;;12.89;86.17;97600.34;5025426;28;20033;-71
2023/09/23 00:47:59;;;;;;;3.70;2.50;;;;;;;12.95;86.04;97620.09;5035685;28;20022;-71
2023/09/23 00:50:24;;;;;;;2.42;2.20;;;;;;;12.84;86.11;97604.94;5032269;28;20374;-69
2023/09/23 00:52:51;;;;;;;2.45;2.25;;;;;;;12.82;86.14;97599.00;5044397;28;20103;-72
2023/09/23 00:55:18;;;;;;;3.45;2.80;;;;;;;12.78;85.92;97597.94;5043807;28;20127;-70
2023/09/23 00:57:46;;;;;;;5.90;2.25;;;;;;;12.82;86.21;97593.59;5031430;28;20045;-71
2023/09/23 01:00:11;;;;;;;3.03;2.47;;;;;;;12.72;86.39;97599.84;5016004;28;20033;-70
2023/09/23 01:02:37;;;;;;;4.63;2.45;;;;;;;12.72;86.68;97599.06;5030712;28;20385;-73
2023/09/23 01:05:04;;;;;;;5.50;2.03;;;;;;;12.79;86.96;97605.78;5035471;28;20061;-71
2023/09/23 01:07:31;;;;;;;4.63;2.40;;;;;;;12.70;86.41;97593.91;5036399;28;20021;-69
2023/09/23 01:09:57;;;;;;;4.28;2.40;;;;;;;12.83;86.72;97619.56;5043941;28;20086;-70
2023/09/23 01:12:22;;;;;;;3.15;2.50;;;;;;;12.78;86.33;97603.34;5039325;28;20108;-69
2023/09/23 01:14:48;;;;;;;2.80;2.20;;;;;;;12.86;85.97;97617.13;5036807;28;20029;-69
2023/09/23 01:17:15;;;;;;;3.72;2.20;;;;;;;12.78;86.23;97603.34;5050458;28;20473;-69
2023/09/23 01:19:41;;;;;;;3.60;2.50;;;;;;;12.84;86.15;97619.28;5050476;28;20028;-70
2023/09/23 01:22:08;;;;;;;4.10;2.42;;;;;;;12.85;85.97;97625.50;5030569;28;20408;-72
2023/09/23 01:24:34;;;;;;;4.00;2.60;;;;;;;12.86;86.07;97624.44;5044461;28;20044;-69
2023/09/23 01:27:03;;;;;;;2.35;2.10;;;;;;;12.88;86.21;97631.16;5039461;28;20108;-71
2023/09/23 01:29:29;;;;;;;2.80;2.10;;;;;;;12.79;85.35;97605.00;5050093;28;20119;-70
2023/09/23 01:32:03;;;;;;;3.65;2.33;;;;;;;12.88;85.18;97619.56;5042184;28;20109;-69
2023/09/23 01:34:29;;;;;;;3.10;2.08;;;;;;;12.95;85.66;97630.91;5043158;28;20083;-70
2023/09/23 01:36:54;;;;;;;3.78;2.05;;;;;;;12.95;85.36;97628.97;5040609;28;20029;-69
2023/09/23 01:39:20;;;;;;;3.47;2.22;;;;;;;12.72;85.43;97593.66;5046791;28;20120;-71
2023/09/23 01:41:45;;;;;;;3.47;2.00;;;;;;;12.81;85.24;97608.22;5037416;28;20052;-71
2023/09/23 01:44:10;;;;;;;4.10;2.17;;;;;;;12.93;84.91;97627.63;5043468;28;20041;-70
2023/09/23 01:46:37;;;;;;;3.58;2.08;;;;;;;12.88;84.30;97630.38;5040386;28;20033;-71
2023/09/23 01:49:03;;;;;;;2.80;2.28;;;;;;;12.92;84.80;97653.88;5037883;28;20029;-71
2023/09/23 01:51:28;;;;;;;3.33;2.40;;;;;;;12.72;84.95;97659.28;5046462;28;20542;-71
2023/09/23 01:53:54;;;;;;;4.40;3.20;;;;;;;12.61;84.64;97656.84;5045653;28;20075;-71
2023/09/23 01:56:19;;;;;;;4.82;3.35;;;;;;;12.56;84.59;97654.16;5049909;28;20495;-73
2023/09/23 01:58:45;;;;;;;5.82;2.72;;;;;;;12.53;84.61;97665.50;5046591;28;20029;-71
2023/09/23 02:01:10;;;;;;;4.63;2.80;;;;;;;12.48;84.57;97672.50;5036169;28;20445;-69
2023/09/23 02:03:35;;;;;;;4.20;3.40;;;;;;;12.33;84.49;97661.72;5045374;28;20111;-70
2023/09/23 02:06:01;;;;;;;7.10;3.38;;;;;;;12.29;84.27;97651.72;5029883;28;20026;-69
2023/09/23 02:08:28;;;;;;;4.53;3.22;;;;;;;12.36;84.52;97677.38;5045694;28;20037;-70
2023/09/23 02:10:53;;;;;;;3.92;3.08;;;;;;;12.26;84.67;97676.53;5049565;28;20493;-72
2023/09/23 02:13:19;;;;;;;5.28;2.80;;;;;;;12.30;84.35;97678.44;5036023;28;20044;-71
2023/09/23 02:15:44;;;;;;;3.00;2.65;;;;;;;12.36;85.33;97698.16;5046380;28;20057;-70
2023/09/23 02:18:10;;;;;;;6.35;3.50;;;;;;;12.24;84.83;97706.50;5033266;28;20037;-74
2023/09/23 02:20:35;;;;;;;4.53;3.33;;;;;;;12.22;85.12;97715.97;5046447;28;20022;-74
2023/09/23 02:23:03;;;;;;;6.60;2.97;;;;;;;12.22;85.40;97714.06;5031304;28;20064;-68
2023/09/23 02:25:28;;;;;;;4.43;3.30;;;;;;;12.15;85.58;97713.53;5047526;28;20029;-72
2023/09/23 02:27:55;;;;;;;3.30;3.00;;;;;;;12.12;85.93;97719.44;5043654;28;20409;-72
2023/09/23 02:30:21;;;;;;;4.28;3.13;;;;;;;12.03;86.06;97715.63;5030315;28;20025;-74
2023/09/23 02:32:47;;;;;;;2.80;2.35;;;;;;;12.11;86.42;97719.72;5045169;28;20035;-71
2023/09/23 02:35:15;;;;;;;5.07;2.83;;;;;;;12.32;86.89;97730.28;5050585;28;20029;-71
2023/09/23 02:37:41;;;;;;;3.55;2.63;;;;;;;12.36;87.08;97735.97;5049253;28;20042;-72
2023/09/23 02:40:14;;;;;;;3.42;2.65;;;;;;;12.28;87.01;97706.78;5022639;28;20026;-73
2023/09/23 02:42:47;;;;;;;4.43;2.40;;;;;;;12.52;87.29;97728.69;5049642;28;20039;-72
2023/09/23 02:45:16;;;;;;;4.60;2.70;;;;;;;12.61;86.62;97743.28;5052742;28;20036;-72
2023/09/23 02:47:46;;;;;;;3.95;2.40;;;;;;;12.62;86.89;97734.13;5049567;28;20109;-72
2023/09/23 02:50:17;;;;;;;6.93;2.80;;;;;;;12.68;86.90;97743.84;5042170;28;20034;-71
2023/09/23 02:52:44;;;;;;;3.70;2.90;;;;;;;12.62;87.55;97736.81;5026714;28;20559;-71
2023/09/23 02:55:19;;;;;;;4.95;2.95;;;;;;;12.71;87.16;97743.31;5035999;28;20017;-72
2023/09/23 02:57:49;;;;;;;1.83;1.70;;;;;;;12.78;87.15;97749.28;5033278;28;20033;-70
2023/09/23 03:00:18;;;;;;;3.50;2.25;;;;;;;12.88;86.26;97751.97;5047678;28;20034;-71
2023/09/23 03:02:45;;;;;;;3.42;2.30;;;;;;;12.91;86.76;97748.72;5054108;28;20029;-72
2023/09/23 03:05:15;;;;;;;4.95;2.40;;;;;;;12.93;86.19;97757.38;5052388;28;20485;-70
2023/09/23 03:07:41;;;;;;;3.05;2.30;;;;;;;12.88;86.15;97750.06;5052621;28;20052;-71
2023/09/23 03:10:12;;;;;;;5.72;2.72;;;;;;;12.93;86.29;97760.06;5052529;28;20025;-72
2023/09/23 03:12:42;;;;;;;2.60;2.38;;;;;;;12.96;85.80;97767.66;5050137;28;20037;-73
2023/09/23 03:15:14;;;;;;;2.90;2.20;;;;;;;12.91;85.67;97765.75;5046075;28;20041;-72
2023/09/23 03:17:50;;;;;;;4.43;2.20;;;;;;;12.93;85.46;97773.59;5041208;28;20041;-72
2023/09/23 03:20:22;;;;;;;;;;;;;;;12.54;86.16;97775.97;5053147;28;20087;-72
2023/09/23 03:22:49;;;;;;;4.55;2.40;;;;;;;12.83;86.14;97774.41;5033176;28;20396;-72
2023/09/23 03:25:20;;;;;;;6.32;2.70;;;;;;;12.73;86.37;97765.47;5052107;28;20171;-72
2023/09/23 03:27:51;;;;;;;6.18;2.50;;;;;;;12.84;85.86;97788.72;5053624;28;20036;-71
2023/09/23 03:30:17;;;;;;;3.47;2.30;;;;;;;12.80;85.94;97790.34;5032326;28;20033;-72
2023/09/23 03:32:44;;;;;;;5.78;2.80;;;;;;;12.79;86.03;97794.13;5047814;28;20104;-71
2023/09/23 03:35:17;;;;;;;4.22;2.63;;;;;;;12.82;86.07;97798.97;5049867;28;20041;-71
2023/09/23 03:37:49;;;;;;;2.90;2.25;;;;;;;12.77;86.07;97804.38;5051049;28;20044;-72
2023/09/23 03:40:15;;;;;;;4.47;3.00;;;;;;;12.82;85.70;97807.09;5052190;28;20488;-72
2023/09/23 03:42:42;;;;;;;4.15;2.20;;;;;;;12.70;86.18;97790.31;5032055;28;20096;-74
2023/09/23 03:45:10;;;;;;;5.22;2.40;;;;;;;12.83;85.57;97806.03;5022679;28;20558;-74
2023/09/23 03:47:38;;;;;;;2.85;2.10;;;;;;;12.79;86.45;97804.94;5046542;28;20029;-75
2023/09/23 03:50:04;;;;;;;3.85;2.30;;;;;;;12.76;85.74;97786.56;5025483;28;20033;-72
2023/09/23 03:52:30;;;;;;;3.42;2.55;;;;;;;12.81;85.90;97798.16;5033565;28;20428;-70
2023/09/23 03:54:57;;;;;;;4.53;2.58;;;;;;;12.90;85.24;97809.28;5051388;28;20040;-70
2023/09/23 03:57:22;;;;;;;3.72;2.90;;;;;;;12.87;85.41;97796.28;5051638;28;20029;-71
2023/09/23 03:59:49;;;;;;;3.95;2.53;;;;;;;12.80;86.10;97799.25;5051572;28;20025;-71
2023/09/23 04:02:14;;;;;;;3.65;2.50;;;;;;;12.76;85.58;97783.84;5051561;28;20108;-71
2023/09/23 04:04:39;;;;;;;2.63;2.00;;;;;;;12.82;85.73;97801.69;5034610;28;20124;-71
2023/09/23 04:07:06;;;;;;;2.70;2.17;;;;;;;12.78;85.14;97798.72;5031641;28;20025;-71
2023/09/23 04:09:33;;;;;;;4.93;2.25;;;;;;;12.86;85.66;97808.19;5044489;28;20033;-70
2023/09/23 04:12:00;;;;;;;3.35;2.10;;;;;;;12.83;86.06;97816.84;5031604;28;20426;-71
2023/09/23 04:14:26;;;;;;;3.70;2.10;;;;;;;12.76;85.31;97797.38;5043201;28;20052;-73
2023/09/23 04:16:52;;;;;;;3.67;2.38;;;;;;;12.84;85.57;97815.75;5031306;28;20021;-71
2023/09/23 04:19:18;;;;;;;4.13;2.10;;;;;;;12.77;85.45;97829.50;5040223;28;20036;-73
2023/09/23 04:21:43;;;;;;;4.55;2.35;;;;;;;12.69;85.43;97821.13;5046835;28;20071;-73
2023/09/23 04:24:09;;;;;;;3.95;2.35;;;;;;;12.67;85.53;97817.88;5039610;28;20508;-73
2023/09/23 04:26:34;;;;;;;4.13;2.40;;;;;;;12.65;85.09;97820.06;5029895;28;20088;-72
2023/09/23 04:28:59;;;;;;;3.33;2.22;;;;;;;12.79;85.07;97837.38;5042889;28;20043;-71
2023/09/23 04:31:25;;;;;;;4.22;2.40;;;;;;;12.78;85.29;97835.75;5051057;28;20393;-70
2023/09/23 04:33:51;;;;;;;3.88;2.05;;;;;;;12.80;85.33;97828.16;5051886;28;20043;-70
2023/09/23 04:36:17;;;;;;;2.83;2.10;;;;;;;12.89;84.63;97845.47;5052312;28;20080;-71
2023/09/23 04:38:45;;;;;;;5.35;2.28;;;;;;;12.89;84.82;97848.19;5051038;28;20493;-72
2023/09/23 04:41:10;;;;;;;3.83;2.10;;;;;;;12.88;85.02;97849.28;5047315;28;20033;-71
2023/09/23 04:43:36;;;;;;;2.75;2.00;;;;;;;12.88;85.23;97851.97;5043045;28;20450;-72
2023/09/23 04:46:02;;;;;;;3.08;2.22;;;;;;;12.90;85.11;97860.63;5050043;28;20017;-72
2023/09/23 04:48:30;;;;;;;5.07;2.10;;;;;;;12.86;85.03;97863.03;5041513;28;20079;-71
2023/09/23 04:50:56;;;;;;;2.40;2.20;;;;;;;12.92;85.06;97874.69;5041640;28;20024;-71
2023/09/23 04:53:21;;;;;;;3.70;2.85;;;;;;;12.93;84.29;97876.28;5048809;28;20400;-71
2023/09/23 04:55:47;;;;;;;10.35;8.45;;;;;;;12.90;84.62;97879.56;5056149;28;20396;-71
2023/09/23 04:58:13;;;;;;;44.63;39.67;;;;;;;12.91;84.84;97878.47;5020779;28;20051;-72
2023/09/23 05:00:38;;;;;;;60.53;48.00;;;;;;;12.89;84.12;97883.31;5041590;28;20104;-71
2023/09/23 05:03:05;;;;;;;65.07;46.17;;;;;;;13.00;84.65;97896.59;5047343;28;20492;-71
2023/09/23 05:05:31;;;;;;;16.73;11.07;;;;;;;13.05;84.13;97912.84;5032699;28;20025;-71
2023/09/23 05:07:57;;;;;;;318.92;191.13;;;;;;;12.99;84.57;97913.09;5022264;28;20116;-71
2023/09/23 05:10:23;;;;;;;186.75;110.53;;;;;;;12.98;83.46;97923.09;5048411;28;20108;-71
2023/09/23 05:12:52;;;;;;;294.60;174.02;;;;;;;12.91;83.97;97917.13;5051558;28;20051;-72
2023/09/23 05:15:17;;;;;;;42.30;26.17;;;;;;;12.88;84.06;97911.44;5029824;28;20108;-71
2023/09/23 05:17:43;;;;;;;14.60;10.75;;;;;;;12.92;83.78;97917.94;5043959;28;20051;-72
2023/09/23 05:20:25;;;;;;;15.30;10.80;;;;;;;12.90;83.51;97929.03;5046750;28;20028;-72
2023/09/23 05:22:51;;;;;;;3.13;2.30;;;;;;;13.04;83.41;97948.25;5047604;28;20033;-72
2023/09/23 05:25:18;;;;;;;4.32;2.22;;;;;;;13.04;83.40;97953.66;5049811;28;20475;-71
2023/09/23 05:27:43;;;;;;;3.03;1.90;;;;;;;12.89;82.76;97930.09;5046955;28;20041;-72
2023/09/23 05:30:12;;;;;;;2.95;2.28;;;;;;;12.99;83.36;97950.94;5046697;28;20075;-71
2023/09/23 05:32:38;;;;;;;2.38;1.92;;;;;;;13.13;83.01;97969.13;5032069;28;20041;-71
2023/09/23 05:35:10;;;;;;;3.25;1.80;;;;;;;13.13;82.89;97962.91;5046221;28;20105;-72
2023/09/23 05:37:43;;;;;;;3.97;2.17;;;;;;;13.02;82.62;97956.59;5030184;28;20045;-72
2023/09/23 05:40:27;;;;;;;3.63;2.10;;;;;;;12.97;83.37;97963.91;5030197;28;20037;-71
2023/09/23 05:42:56;;;;;;;3.00;2.30;;;;;;;13.06;82.57;97973.97;5029283;28;20037;-72
2023/09/23 05:45:24;;;;;;;6.43;5.65;;;;;;;13.08;82.69;97981.81;5043665;28;20029;-72
2023/09/23 05:47:54;;;;;;;8.27;5.30;;;;;;;13.06;82.66;97983.97;5046251;28;20064;-73
2023/09/23 05:50:20;;;;;;;6.65;6.05;;;;;;;13.04;82.54;97991.50;5040316;28;20077;-72
2023/09/23 05:52:46;;;;;;;6.53;5.38;;;;;;;12.87;83.02;97969.25;5049955;28;20627;-73
2023/09/23 05:55:11;;;;;;;5.47;4.97;;;;;;;13.02;83.17;98005.28;5036211;28;20037;-72
2023/09/23 05:57:40;;;;;;;2.80;2.60;;;;;;;13.02;83.11;98009.88;5046531;28;20031;-73
2023/09/23 06:00:10;;;;;;;4.32;3.55;;;;;;;12.86;83.13;97989.28;5029969;28;20105;-72
2023/09/23 06:02:36;;;;;;;6.63;3.65;;;;;;;13.01;82.87;98002.84;5034913;28;20455;-74
2023/09/23 06:05:02;;;;;;;2.55;2.35;;;;;;;13.00;83.07;97995.78;5029391;28;20099;-72
2023/09/23 06:07:28;;;;;;;3.35;2.63;;;;;;;12.96;82.66;97990.13;5039127;28;20439;-72
2023/09/23 06:09:54;;;;;;;3.58;3.28;;;;;;;12.97;82.51;98001.75;5029507;28;20112;-72
2023/09/23 06:12:20;;;;;;;3.08;2.00;;;;;;;13.03;82.18;98011.50;5032431;28;20049;-72
2023/09/23 06:14:45;;;;;;;3.17;2.40;;;;;;;13.12;81.90;98020.75;5047026;28;20025;-74
2023/09/23 06:17:11;;;;;;;2.13;1.92;;;;;;;13.19;81.99;98021.31;5038276;28;20129;-72
2023/09/23 06:19:36;;;;;;;1.83;1.73;;;;;;;13.25;81.79;98020.28;5050541;28;20030;-72
2023/09/23 06:22:02;;;;;;;2.33;1.50;;;;;;;13.22;81.55;98007.28;5050300;28;20067;-72
2023/09/23 06:24:27;;;;;;;3.13;1.70;;;;;;;13.30;81.88;98023.00;5047911;28;20024;-72
2023/09/23 06:26:53;;;;;;;3.28;1.90;;;;;;;13.20;81.53;98001.31;5054778;28;20033;-72
2023/09/23 06:29:18;;;;;;;1.77;1.67;;;;;;;13.15;81.63;97990.47;5041293;28;20389;-72
2023/09/23 06:31:43;;;;;;;2.78;1.75;;;;;;;13.42;80.97;98026.25;5047470;28;20037;-71
2023/09/23 06:34:09;;;;;;;3.67;1.77;;;;;;;13.44;81.69;98029.50;5048155;28;20392;-71
2023/09/23 06:36:34;;;;;;;2.60;1.80;;;;;;;13.30;81.12;98014.88;5047738;28;20033;-72
2023/09/23 06:38:59;;;;;;;2.33;1.73;;;;;;;13.45;81.34;98030.31;5046931;28;20473;-72
2023/09/23 06:41:25;;;;;;;1.70;1.60;;;;;;;13.50;81.13;98046.56;5040568;28;20095;-73
2023/09/23 06:43:51;;;;;;;2.47;1.60;;;;;;;13.35;80.92;98031.09;5049459;28;20033;-74
2023/09/23 06:46:17;;;;;;;3.28;1.50;;;;;;;13.39;80.98;98048.44;5041777;28;20048;-73
2023/09/23 06:48:43;;;;;;;1.73;1.50;;;;;;;13.33;80.30;98052.19;5050044;28;20021;-73
2023/09/23 06:51:08;;;;;;;2.38;1.55;;;;;;;13.40;80.39;98050.06;5049757;28;20068;-72
2023/09/23 06:53:34;;;;;;;1.70;1.60;;;;;;;13.40;80.46;98050.06;5039212;28;20069;-73
2023/09/23 06:55:59;;;;;;;2.05;1.50;;;;;;;13.34;80.13;98044.91;5039656;28;20033;-73
2023/09/23 06:58:25;;;;;;;5.13;1.60;;;;;;;13.32;79.67;98037.06;5050490;28;20029;-72
2023/09/23 07:00:50;;;;;;;2.15;1.45;;;;;;;13.42;79.68;98056.00;5036435;28;20509;-73
2023/09/23 07:03:16;;;;;;;2.53;1.65;;;;;;;13.44;79.79;98072.78;5039576;28;20036;-73
2023/09/23 07:05:42;;;;;;;1.70;1.50;;;;;;;13.50;79.68;98087.97;5049202;28;20135;-73
2023/09/23 07:08:07;;;;;;;3.20;1.40;;;;;;;13.53;79.65;98100.97;5042281;28;20017;-73
2023/09/23 07:10:38;;;;;;;1.67;1.58;;;;;;;13.48;79.16;98090.13;5052348;28;20033;-72
2023/09/23 07:13:04;;;;;;;2.13;1.50;;;;;;;13.59;79.06;98108.03;5049334;28;20033;-72
2023/09/23 07:15:39;;;;;;;2.92;1.52;;;;;;;13.64;79.35;98105.34;5032056;28;20644;-72
2023/09/23 07:18:05;;;;;;;1.70;1.60;;;;;;;13.76;78.90;98114.03;5035766;28;20120;-73
2023/09/23 07:20:30;;;;;;;1.88;1.45;;;;;;;13.80;79.04;98115.13;5053389;28;20121;-72
2023/09/23 07:22:56;;;;;;;2.38;1.67;;;;;;;13.74;78.55;98116.22;5047356;28;20037;-73
2023/09/23 07:25:21;;;;;;;2.05;1.80;;;;;;;13.80;78.72;98119.72;5035579;28;20403;-73
2023/09/23 07:27:47;;;;;;;1.98;1.67;;;;;;;13.98;78.64;98127.34;5049894;28;20682;-73
2023/09/23 07:30:12;;;;;;;4.18;1.80;;;;;;;14.00;78.20;98130.63;5032465;28;20026;-76
2023/09/23 07:32:38;;;;;;;2.33;1.70;;;;;;;14.13;78.21;98148.22;5034720;28;20128;-74
2023/09/23 07:35:04;;;;;;;2.92;2.00;;;;;;;14.18;78.21;98156.38;5049527;28;20108;-72
2023/09/23 07:37:29;;;;;;;2.20;1.73;;;;;;;14.15;78.25;98159.59;5035556;28;20106;-74
2023/09/23 07:39:54;;;;;;;2.58;2.00;;;;;;;14.29;78.32;98163.41;5048900;28;20112;-74
2023/09/23 07:42:20;;;;;;;3.53;2.00;;;;;;;14.27;78.01;98168.28;5045899;28;20516;-74
2023/09/23 07:44:45;;;;;;;4.32;2.25;;;;;;;14.12;78.56;98149.31;5048414;28;20030;-74
2023/09/23 07:47:11;;;;;;;2.97;2.20;;;;;;;14.06;77.93;98166.63;5045909;28;20485;-73
2023/09/23 07:49:37;;;;;;;2.95;2.15;;;;;;;14.18;77.06;98178.84;5051779;28;20029;-72
2023/09/23 07:52:03;;;;;;;4.38;1.90;;;;;;;14.21;76.34;98174.78;5050431;28;20033;-74
2023/09/23 07:54:28;;;;;;;2.63;2.38;;;;;;;14.19;77.00;98161.50;5044941;28;20021;-73
2023/09/23 07:56:54;;;;;;;2.40;2.20;;;;;;;14.35;76.45;98167.81;5060762;28;20029;-74
2023/09/23 07:59:19;;;;;;;5.68;2.40;;;;;;;14.31;75.97;98164.00;5051086;28;20044;-73
2023/09/23 08:01:44;;;;;;;3.80;2.17;;;;;;;14.54;75.44;98168.88;5051087;28;20110;-73
2023/09/23 08:04:10;;;;;;;3.60;2.22;;;;;;;14.75;75.41;98178.66;5046110;28;20033;-74
2023/09/23 08:06:35;;;;;;;3.17;2.20;;;;;;;14.84;74.93;98173.53;5047410;28;20057;-74
2023/09/23 08:09:01;;;;;;;2.47;1.90;;;;;;;14.81;74.89;98180.28;5049803;28;20665;-74
2023/09/23 08:11:26;;;;;;;2.63;1.90;;;;;;;14.70;74.54;98183.28;5051023;28;20069;-73
2023/09/23 08:13:52;;;;;;;7.22;3.63;;;;;;;14.67;73.59;98179.22;5051717;28;20029;-73
2023/09/23 08:16:17;;;;;;;3.55;2.20;;;;;;;14.67;73.32;98162.94;5052642;28;20065;-74
2023/09/23 08:18:43;;;;;;;2.38;1.95;;;;;;;14.63;73.96;98194.41;5048230;28;20076;-76
2023/09/23 08:21:08;;;;;;;3.00;2.25;;;;;;;14.50;74.83;98193.03;5042709;28;20037;-74
2023/09/23 08:23:33;;;;;;;3.88;2.35;;;;;;;14.45;74.22;98187.59;5051464;28;20017;-73
2023/09/23 08:25:59;;;;;;;4.28;2.22;;;;;;;14.41;73.76;98181.09;5052358;28;20032;-73
2023/09/23 08:28:24;;;;;;;4.18;1.80;;;;;;;14.73;73.45;98183.53;5048055;28;20052;-74
2023/09/23 08:30:51;;;;;;;6.15;1.70;;;;;;;14.81;72.69;98193.84;5048179;28;20105;-73
2023/09/23 08:33:17;;;;;;;4.38;1.92;;;;;;;14.59;72.11;98192.47;5047058;28;20033;-73
2023/09/23 08:35:47;;;;;;;2.97;1.80;;;;;;;14.44;72.33;98183.28;5047861;28;20068;-74
2023/09/23 08:38:13;;;;;;;5.75;1.98;;;;;;;14.49;72.67;98198.72;5031230;28;20037;-74
2023/09/23 08:40:39;;;;;;;3.42;1.90;;;;;;;14.65;72.59;98202.25;5045396;28;20021;-74
2023/09/23 08:43:05;;;;;;;3.28;1.55;;;;;;;14.82;72.81;98214.44;5050908;28;20044;-74
2023/09/23 08:45:31;;;;;;;3.13;1.80;;;;;;;14.71;72.52;98206.56;5048484;28;20080;-74
2023/09/23 08:47:57;;;;;;;2.83;1.75;;;;;;;14.93;71.48;98210.66;5047608;28;20065;-74
2023/09/23 08:50:24;;;;;;;3.13;1.60;;;;;;;15.04;71.38;98227.72;5046029;28;20055;-74
2023/09/23 08:52:49;;;;;;;4.40;1.50;;;;;;;15.11;71.39;98220.13;5047335;28;20052;-73
2023/09/23 08:55:16;;;;;;;2.40;1.38;;;;;;;15.08;71.37;98229.63;5041769;28;20025;-74
2023/09/23 08:57:41;;;;;;;5.45;1.80;;;;;;;15.06;71.14;98236.41;5047479;28;20040;-73
2023/09/23 09:00:08;;;;;;;2.45;1.40;;;;;;;15.11;70.94;98237.22;5050636;28;20029;-73
2023/09/23 09:02:34;;;;;;;4.40;1.80;;;;;;;15.18;70.43;98239.66;5047206;28;20041;-73
2023/09/23 09:04:59;;;;;;;5.43;1.77;;;;;;;15.23;70.40;98216.06;5041134;28;20032;-74
2023/09/23 09:07:32;;;;;;;2.60;1.65;;;;;;;15.26;69.60;98249.97;5033971;28;20041;-74
2023/09/23 09:09:58;;;;;;;5.50;1.50;;;;;;;15.14;70.41;98222.31;5067062;28;20051;-73
2023/09/23 09:12:23;;;;;;;4.78;1.50;;;;;;;14.98;70.90;98232.34;5047072;28;20021;-74
2023/09/23 09:14:51;;;;;;;2.22;1.40;;;;;;;15.00;70.11;98232.91;5058832;28;20037;-73
2023/09/23 09:17:18;;;;;;;3.33;1.52;;;;;;;15.03;70.62;98240.47;5046803;28;20048;-74
2023/09/23 09:19:44;;;;;;;4.85;1.67;;;;;;;15.00;70.57;98222.06;5048851;28;20060;-74
2023/09/23 09:22:10;;;;;;;3.83;1.77;;;;;;;15.11;70.40;98239.13;5051347;28;20504;-73
2023/09/23 09:24:35;;;;;;;4.03;1.85;;;;;;;15.19;70.56;98244.81;5051000;28;20047;-74
2023/09/23 09:27:01;;;;;;;4.60;1.80;;;;;;;15.36;70.88;98235.56;5030158;28;20042;-74
2023/09/23 09:29:28;;;;;;;3.15;1.92;;;;;;;15.40;71.00;98237.47;5028412;28;20132;-74
2023/09/23 09:31:59;;;;;;;5.72;1.73;;;;;;;15.32;70.87;98238.03;5030208;28;20108;-74
2023/09/23 09:34:30;;;;;;;4.05;1.55;;;;;;;15.25;70.43;98242.91;5046082;28;20041;-71
2023/09/23 09:36:57;;;;;;;3.97;1.83;;;;;;;15.15;70.70;98230.16;5046355;28;20037;-76
2023/09/23 09:39:29;;;;;;;9.05;1.73;;;;;;;15.34;70.25;98243.16;5047421;28;20698;-76
2023/09/23 09:41:57;;;;;;;3.42;2.05;;;;;;;15.46;70.01;98247.25;5030064;28;20560;-74
2023/09/23 09:44:27;;;;;;;4.53;1.60;;;;;;;15.61;69.58;98249.13;5030661;28;20029;-74
2023/09/23 09:46:54;;;;;;;3.45;1.80;;;;;;;15.68;69.15;98238.81;5025609;28;20033;-74
2023/09/23 09:49:21;;;;;;;5.60;2.72;;;;;;;15.74;67.78;98218.66;5050958;28;20021;-74
2023/09/23 09:51:48;;;;;;;5.40;1.75;;;;;;;16.13;68.29;98235.88;5029873;28;20033;-74
2023/09/23 09:54:14;;;;;;;3.97;1.30;;;;;;;16.07;66.76;98239.72;5038577;28;20103;-74
2023/09/23 09:56:41;;;;;;;4.05;1.67;;;;;;;16.17;66.87;98231.53;5046442;28;20033;-76
2023/09/23 09:59:06;;;;;;;4.80;1.35;;;;;;;16.17;66.50;98217.13;5045027;28;20036;-74
2023/09/23 10:01:33;;;;;;;4.00;1.80;;;;;;;16.16;65.77;98208.16;5033041;28;20111;-75
2023/09/23 10:03:59;;;;;;;2.75;1.45;;;;;;;16.26;66.59;98240.75;5029102;28;20485;-74
2023/09/23 10:06:26;;;;;;;3.15;1.40;;;;;;;16.05;66.53;98241.91;5022723;28;20065;-75
2023/09/23 10:08:53;;;;;;;5.15;1.50;;;;;;;15.95;65.88;98244.66;5045545;28;20026;-75
2023/09/23 10:11:29;;;;;;;2.53;1.33;;;;;;;15.88;65.87;98238.72;5022672;28;20041;-75
2023/09/23 10:13:55;;;;;;;3.30;1.20;;;;;;;15.77;66.49;98237.13;5035469;28;20582;-75
2023/09/23 10:16:27;;;;;;;2.63;1.48;;;;;;;15.85;66.31;98233.84;5044774;28;20041;-74
2023/09/23 10:18:56;;;;;;;2.30;1.40;;;;;;;15.62;66.74;98212.72;5047771;28;20041;-74
2023/09/23 10:21:24;;;;;;;5.50;1.42;;;;;;;15.69;67.23;98237.69;5047825;28;20113;-75
2023/09/23 10:23:51;;;;;;;5.22;1.40;;;;;;;15.78;67.03;98238.75;5027444;28;20155;-73
2023/09/23 10:26:23;;;;;;;2.72;1.30;;;;;;;15.98;66.60;98246.84;5025502;28;20063;-75
2023/09/23 10:28:57;;;;;;;4.82;1.50;;;;;;;16.14;66.42;98237.53;5031963;28;20033;-75
2023/09/23 10:31:28;;;;;;;2.38;1.33;;;;;;;16.49;65.46;98242.78;5050696;28;20444;-75
2023/09/23 10:33:54;;;;;;;3.33;1.38;;;;;;;16.82;64.59;98218.66;5045862;28;20034;-75
2023/09/23 10:36:20;;;;;;;2.85;1.48;;;;;;;17.07;63.54;98235.59;5027342;28;20032;-72
2023/09/23 10:38:46;;;;;;;2.17;1.30;;;;;;;17.08;63.50;98220.06;5032258;28;20049;-74
2023/09/23 10:41:11;;;;;;;3.22;1.10;;;;;;;17.07;61.99;98218.44;5029882;28;20030;-75
2023/09/23 10:43:37;;;;;;;3.22;1.00;;;;;;;17.05;63.69;98216.00;5036537;28;20611;-75
2023/09/23 10:46:02;;;;;;;3.33;1.10;;;;;;;17.10;63.35;98236.94;5029392;28;20032;-76
2023/09/23 10:48:28;;;;;;;3.17;1.35;;;;;;;16.92;62.21;98226.75;5037846;28;20163;-75
2023/09/23 10:50:53;;;;;;;1.85;1.10;;;;;;;16.98;62.97;98231.03;5044435;28;20586;-74
2023/09/23 10:53:21;;;;;;;3.47;1.20;;;;;;;16.86;63.38;98222.41;5042440;28;20084;-75
2023/09/23 10:55:50;;;;;;;1.77;1.10;;;;;;;16.83;62.99;98244.75;5012110;28;20057;-75
2023/09/23 10:58:16;;;;;;;3.05;1.00;;;;;;;16.60;62.92;98235.38;5040597;28;20125;-73
2023/09/23 11:00:41;;;;;;;1.67;1.33;;;;;;;16.53;63.10;98226.72;5048788;28;20025;-75
2023/09/23 11:03:11;;;;;;;3.75;1.40;;;;;;;17.00;62.41;98251.41;5041914;28;20069;-71
2023/09/23 11:05:38;;;;;;;2.47;1.25;;;;;;;17.19;62.22;98248.81;5048969;28;20045;-73
2023/09/23 11:08:10;;;;;;;3.15;1.23;;;;;;;17.04;62.15;98240.75;5042431;28;20057;-75
2023/09/23 11:10:38;;;;;;;5.35;1.35;;;;;;;16.88;62.41;98239.25;5035922;28;20447;-74
2023/09/23 11:13:08;;;;;;;3.30;1.67;;;;;;;16.87;62.13;98243.91;5043225;28;20438;-74
2023/09/23 11:15:33;;;;;;;4.20;1.30;;;;;;;16.89;62.68;98254.50;5053834;28;20041;-75
2023/09/23 11:17:59;;;;;;;2.88;1.30;;;;;;;16.99;62.07;98260.66;5053899;28;20032;-74
2023/09/23 11:20:31;;;;;;;4.60;1.50;;;;;;;17.34;61.62;98240.50;5049296;28;20076;-75
2023/09/23 11:23:03;;;;;;;4.85;1.27;;;;;;;17.24;60.52;98243.34;5050387;28;20049;-75
2023/09/23 11:25:29;;;;;;;2.47;1.08;;;;;;;17.43;60.71;98236.06;5035674;28;20025;-75
2023/09/23 11:27:59;;;;;;;3.38;1.20;;;;;;;17.31;59.34;98237.56;5051243;28;20475;-74
2023/09/23 11:30:25;;;;;;;3.92;1.00;;;;;;;16.97;59.10;98221.22;5032584;28;20034;-75